createdAt,value
2023-09-23T00:09:20.017Z,25.76
2023-09-23T00:24:22.378Z,25.36
2023-09-23T00:39:24.515Z,25.6
2023-09-23T00:54:28.018Z,24.94
2023-09-23T01:09:30.315Z,24.8
2023-09-23T01:24:37.604Z,24.39
2023-09-23T01:39:39.609Z,24.28
2023-09-23T01:54:41.648Z,23.51
2023-09-23T02:09:43.907Z,23.04
2023-09-23T02:24:46.227Z,22.84
2023-09-23T02:39:48.277Z,22.41
2023-09-23T02:54:50.277Z,22.39
2023-09-23T03:09:52.282Z,22.83
2023-09-23T03:24:54.339Z,22.71
2023-09-23T03:39:56.772Z,22.6
2023-09-23T03:54:58.806Z,22.4
2023-09-23T04:10:01.441Z,22.35
2023-09-23T04:25:03.477Z,22.05
2023-09-23T04:40:05.476Z,21.92
2023-09-23T04:55:07.533Z,22
2023-09-23T05:10:09.552Z,21.47
2023-09-23T05:25:11.747Z,21.8
2023-09-23T05:40:14.791Z,21.61
2023-09-23T05:55:16.815Z,21.52
2023-09-23T06:10:18.929Z,20.98
2023-09-23T06:25:21.197Z,21.33
2023-09-23T06:40:23.260Z,21.27
2023-09-23T06:55:25.279Z,21.13
2023-09-23T07:10:27.240Z,21.14
2023-09-23T07:25:29.504Z,20.66
2023-09-23T07:40:31.618Z,20.23
2023-09-23T07:55:33.660Z,19.7
2023-09-23T08:10:35.716Z,20.11
2023-09-23T08:25:37.866Z,20.12
2023-09-23T08:40:40.183Z,20.01
2023-09-23T08:55:42.188Z,20.37
2023-09-23T09:10:44.257Z,19.99
2023-09-23T09:25:46.276Z,20.03
2023-09-23T09:40:48.476Z,19.65
2023-09-23T09:55:50.500Z,18.37
2023-09-23T10:10:52.628Z,19.08
2023-09-23T10:25:54.865Z,19.1
2023-09-23T10:40:57.082Z,18.89
2023-09-23T10:55:59.125Z,18.81
2023-09-23T11:11:01.326Z,18.6
2023-09-23T11:26:03.664Z,18.4
2023-09-23T11:41:06.005Z,18.28
2023-09-23T11:56:08.017Z,18.02
2023-09-23T12:11:10.061Z,17.85
2023-09-23T12:26:12.116Z,18.04
2023-09-23T12:41:14.303Z,17.54
2023-09-23T12:56:16.652Z,17.88
2023-09-23T13:11:18.741Z,17.96
2023-09-23T13:26:20.877Z,17.7
2023-09-23T13:41:23.119Z,17.78
2023-09-23T13:56:25.437Z,18.25
2023-09-23T14:11:27.526Z,18.14
2023-09-23T14:26:29.709Z,17.94
2023-09-23T14:41:32.079Z,18.37
2023-09-23T14:56:34.308Z,18.61
2023-09-23T15:11:36.376Z,18.95
2023-09-23T15:26:38.542Z,18.47
2023-09-23T15:41:40.798Z,18.77
2023-09-23T15:56:43.104Z,19.08
2023-09-23T16:11:45.246Z,18.72
2023-09-23T16:26:47.446Z,19.34
2023-09-23T16:41:49.541Z,19.21
2023-09-23T16:56:51.603Z,19.35
2023-09-23T17:11:53.531Z,18.9
2023-09-23T17:26:55.632Z,18.92
2023-09-23T17:41:57.629Z,19.19
2023-09-23T17:56:59.697Z,19.57
2023-09-23T18:12:01.594Z,19.81
2023-09-23T18:27:03.694Z,19.86
2023-09-23T18:42:05.672Z,19.94
2023-09-23T18:57:07.613Z,19.84
2023-09-23T19:12:09.676Z,19.92
2023-09-23T19:27:11.720Z,20.03
2023-09-23T19:42:13.647Z,20.21
2023-09-23T19:57:15.537Z,20.59
2023-09-23T20:12:17.612Z,21.41
2023-09-23T20:27:19.497Z,21.96
2023-09-23T20:42:21.450Z,22.05
2023-09-23T20:57:23.358Z,22.03
2023-09-23T21:12:25.304Z,22.24
2023-09-23T21:27:27.194Z,22.35
2023-09-23T21:42:29.216Z,22.64
2023-09-23T21:57:32.691Z,23.01
2023-09-23T22:12:36.258Z,23.45
2023-09-23T22:27:38.259Z,23.86
2023-09-23T22:42:40.197Z,24.28
2023-09-23T22:57:42.391Z,24.49
2023-09-23T23:12:44.344Z,24.37
2023-09-23T23:27:46.327Z,24.13
2023-09-23T23:42:48.343Z,23.91
2023-09-23T23:57:50.386Z,23.87
